sensor_id;sensor_type;location;lat;lon;timestamp;P1;durP1;ratioP1;P2;durP2;ratioP2
7495;SDS011;3789;47.064;15.482;2022-11-15T00:01:16;135.90;;;53.07;;
7495;SDS011;3789;47.064;15.482;2022-11-15T00:03:50;123.47;;;51.17;;
7495;SDS011;3789;47.064;15.482;2022-11-15T00:06:27;124.10;;;51.20;;
7495;SDS011;3789;47.064;15.482;2022-11-15T00:08:57;120.40;;;50.70;;
7495;SDS011;3789;47.064;15.482;2022-11-15T00:11:25;108.40;;;50.23;;
7495;SDS011;3789;47.064;15.482;2022-11-15T00:13:56;106.67;;;46.47;;
7495;SDS011;3789;47.064;15.482;2022-11-15T00:16:31;89.13;;;44.03;;
7495;SDS011;3789;47.064;15.482;2022-11-15T00:18:59;97.17;;;46.47;;
7495;SDS011;3789;47.064;15.482;2022-11-15T00:21:28;91.87;;;44.90;;
7495;SDS011;3789;47.064;15.482;2022-11-15T00:24:03;94.93;;;43.67;;
7495;SDS011;3789;47.064;15.482;2022-11-15T00:26:31;87.23;;;42.00;;
7495;SDS011;3789;47.064;15.482;2022-11-15T00:29:02;93.53;;;43.23;;
7495;SDS011;3789;47.064;15.482;2022-11-15T00:31:30;85.93;;;41.87;;
7495;SDS011;3789;47.064;15.482;2022-11-15T00:34:00;83.90;;;42.10;;
7495;SDS011;3789;47.064;15.482;2022-11-15T00:36:32;81.47;;;40.90;;
7495;SDS011;3789;47.064;15.482;2022-11-15T00:39:05;73.83;;;39.43;;
7495;SDS011;3789;47.064;15.482;2022-11-15T00:41:33;86.23;;;35.27;;
7495;SDS011;3789;47.064;15.482;2022-11-15T00:44:04;69.10;;;38.23;;
7495;SDS011;3789;47.064;15.482;2022-11-15T00:46:33;71.70;;;36.67;;
7495;SDS011;3789;47.064;15.482;2022-11-15T00:49:03;81.60;;;42.43;;
7495;SDS011;3789;47.064;15.482;2022-11-15T00:51:30;82.60;;;41.30;;
7495;SDS011;3789;47.064;15.482;2022-11-15T00:53:59;100.43;;;40.70;;
7495;SDS011;3789;47.064;15.482;2022-11-15T00:56:36;101.10;;;40.50;;
7495;SDS011;3789;47.064;15.482;2022-11-15T00:59:11;78.87;;;37.07;;
7495;SDS011;3789;47.064;15.482;2022-11-15T01:01:42;136.33;;;45.10;;
7495;SDS011;3789;47.064;15.482;2022-11-15T01:04:09;106.40;;;37.33;;
7495;SDS011;3789;47.064;15.482;2022-11-15T01:06:47;100.83;;;38.57;;
7495;SDS011;3789;47.064;15.482;2022-11-15T01:09:14;96.73;;;41.57;;
7495;SDS011;3789;47.064;15.482;2022-11-15T01:11:44;96.53;;;41.97;;
7495;SDS011;3789;47.064;15.482;2022-11-15T01:14:12;111.40;;;45.27;;
7495;SDS011;3789;47.064;15.482;2022-11-15T01:16:52;105.80;;;46.60;;
7495;SDS011;3789;47.064;15.482;2022-11-15T01:19:23;107.83;;;45.57;;
7495;SDS011;3789;47.064;15.482;2022-11-15T01:21:53;101.00;;;41.90;;
7495;SDS011;3789;47.064;15.482;2022-11-15T01:24:26;96.97;;;36.80;;
7495;SDS011;3789;47.064;15.482;2022-11-15T01:26:55;109.27;;;45.47;;
7495;SDS011;3789;47.064;15.482;2022-11-15T01:29:26;110.27;;;45.53;;
7495;SDS011;3789;47.064;15.482;2022-11-15T01:31:56;125.43;;;50.60;;
7495;SDS011;3789;47.064;15.482;2022-11-15T01:34:35;106.47;;;45.80;;
7495;SDS011;3789;47.064;15.482;2022-11-15T01:37:13;105.10;;;45.93;;
7495;SDS011;3789;47.064;15.482;2022-11-15T01:39:44;116.77;;;47.13;;
7495;SDS011;3789;47.064;15.482;2022-11-15T01:42:22;109.00;;;47.20;;
7495;SDS011;3789;47.064;15.482;2022-11-15T01:44:58;110.73;;;46.47;;
7495;SDS011;3789;47.064;15.482;2022-11-15T01:47:35;100.97;;;45.43;;
7495;SDS011;3789;47.064;15.482;2022-11-15T01:50:10;97.70;;;43.00;;
7495;SDS011;3789;47.064;15.482;2022-11-15T01:52:43;98.07;;;43.83;;
7495;SDS011;3789;47.064;15.482;2022-11-15T01:55:22;101.70;;;44.60;;
7495;SDS011;3789;47.064;15.482;2022-11-15T01:57:56;93.70;;;43.97;;
7495;SDS011;3789;47.064;15.482;2022-11-15T02:00:31;85.00;;;42.57;;
7495;SDS011;3789;47.064;15.482;2022-11-15T02:03:02;87.60;;;38.60;;
7495;SDS011;3789;47.064;15.482;2022-11-15T02:05:33;74.77;;;32.97;;
7495;SDS011;3789;47.064;15.482;2022-11-15T02:08:20;96.60;;;41.77;;
7495;SDS011;3789;47.064;15.482;2022-11-15T02:10:49;105.70;;;45.60;;
7495;SDS011;3789;47.064;15.482;2022-11-15T02:13:19;92.20;;;43.17;;
7495;SDS011;3789;47.064;15.482;2022-11-15T02:15:59;97.13;;;43.70;;
7495;SDS011;3789;47.064;15.482;2022-11-15T02:18:48;90.50;;;41.67;;
7495;SDS011;3789;47.064;15.482;2022-11-15T02:30:48;81.60;;;40.30;;
7495;SDS011;3789;47.064;15.482;2022-11-15T02:33:29;79.70;;;39.50;;
7495;SDS011;3789;47.064;15.482;2022-11-15T02:36:36;76.17;;;38.63;;
7495;SDS011;3789;47.064;15.482;2022-11-15T02:42:45;83.13;;;40.77;;
7495;SDS011;3789;47.064;15.482;2022-11-15T02:46:06;81.20;;;39.97;;
7495;SDS011;3789;47.064;15.482;2022-11-15T02:49:24;71.20;;;38.23;;
7495;SDS011;3789;47.064;15.482;2022-11-15T02:52:08;80.47;;;37.93;;
7495;SDS011;3789;47.064;15.482;2022-11-15T02:55:31;72.33;;;37.30;;
7495;SDS011;3789;47.064;15.482;2022-11-15T03:11:03;53.57;;;27.33;;
7495;SDS011;3789;47.064;15.482;2022-11-15T03:20:07;60.27;;;29.80;;
7495;SDS011;3789;47.064;15.482;2022-11-15T03:22:41;83.77;;;27.03;;
7495;SDS011;3789;47.064;15.482;2022-11-15T03:25:48;89.33;;;29.27;;
7495;SDS011;3789;47.064;15.482;2022-11-15T03:28:37;78.10;;;30.57;;
7495;SDS011;3789;47.064;15.482;2022-11-15T03:31:30;102.00;;;32.93;;
7495;SDS011;3789;47.064;15.482;2022-11-15T03:36:56;177.47;;;40.73;;
7495;SDS011;3789;47.064;15.482;2022-11-15T03:39:49;98.23;;;34.00;;
7495;SDS011;3789;47.064;15.482;2022-11-15T03:42:36;117.40;;;34.27;;
7495;SDS011;3789;47.064;15.482;2022-11-15T03:45:50;92.63;;;33.30;;
7495;SDS011;3789;47.064;15.482;2022-11-15T03:49:11;42.53;;;20.57;;
7495;SDS011;3789;47.064;15.482;2022-11-15T03:52:12;46.23;;;21.47;;
7495;SDS011;3789;47.064;15.482;2022-11-15T03:55:02;42.63;;;20.83;;
7495;SDS011;3789;47.064;15.482;2022-11-15T03:57:31;54.83;;;23.73;;
7495;SDS011;3789;47.064;15.482;2022-11-15T04:00:00;115.30;;;40.67;;
7495;SDS011;3789;47.064;15.482;2022-11-15T04:02:29;135.83;;;45.80;;
7495;SDS011;3789;47.064;15.482;2022-11-15T04:04:56;148.80;;;48.93;;
7495;SDS011;3789;47.064;15.482;2022-11-15T04:07:25;125.70;;;44.87;;
7495;SDS011;3789;47.064;15.482;2022-11-15T04:09:55;147.70;;;47.83;;
7495;SDS011;3789;47.064;15.482;2022-11-15T04:12:34;131.57;;;40.27;;
7495;SDS011;3789;47.064;15.482;2022-11-15T04:15:18;162.93;;;50.93;;
7495;SDS011;3789;47.064;15.482;2022-11-15T04:17:52;177.90;;;52.27;;
7495;SDS011;3789;47.064;15.482;2022-11-15T04:20:32;215.43;;;62.60;;
7495;SDS011;3789;47.064;15.482;2022-11-15T04:23:19;179.37;;;50.03;;
7495;SDS011;3789;47.064;15.482;2022-11-15T04:26:07;184.80;;;55.53;;
7495;SDS011;3789;47.064;15.482;2022-11-15T04:28:45;160.97;;;47.03;;
7495;SDS011;3789;47.064;15.482;2022-11-15T04:31:31;165.00;;;48.73;;
7495;SDS011;3789;47.064;15.482;2022-11-15T04:33:59;218.77;;;64.17;;
7495;SDS011;3789;47.064;15.482;2022-11-15T04:36:27;191.40;;;57.43;;
7495;SDS011;3789;47.064;15.482;2022-11-15T04:39:12;234.37;;;62.63;;
7495;SDS011;3789;47.064;15.482;2022-11-15T04:41:40;212.27;;;60.77;;
7495;SDS011;3789;47.064;15.482;2022-11-15T04:44:08;235.77;;;62.97;;
7495;SDS011;3789;47.064;15.482;2022-11-15T04:46:41;173.13;;;50.10;;
7495;SDS011;3789;47.064;15.482;2022-11-15T04:49:08;194.80;;;60.53;;
7495;SDS011;3789;47.064;15.482;2022-11-15T04:51:36;183.87;;;55.07;;
7495;SDS011;3789;47.064;15.482;2022-11-15T04:54:18;189.07;;;56.67;;
7495;SDS011;3789;47.064;15.482;2022-11-15T04:56:45;187.17;;;57.23;;
7495;SDS011;3789;47.064;15.482;2022-11-15T04:59:13;186.77;;;57.07;;
7495;SDS011;3789;47.064;15.482;2022-11-15T05:01:40;202.37;;;56.70;;
7495;SDS011;3789;47.064;15.482;2022-11-15T05:04:11;184.57;;;54.77;;
7495;SDS011;3789;47.064;15.482;2022-11-15T05:06:48;179.20;;;54.27;;
7495;SDS011;3789;47.064;15.482;2022-11-15T05:09:17;164.23;;;52.23;;
7495;SDS011;3789;47.064;15.482;2022-11-15T05:11:46;238.13;;;49.03;;
7495;SDS011;3789;47.064;15.482;2022-11-15T05:14:15;166.40;;;53.17;;
7495;SDS011;3789;47.064;15.482;2022-11-15T05:16:47;167.20;;;53.63;;
7495;SDS011;3789;47.064;15.482;2022-11-15T05:19:37;160.70;;;52.73;;
7495;SDS011;3789;47.064;15.482;2022-11-15T05:22:05;143.97;;;51.17;;
7495;SDS011;3789;47.064;15.482;2022-11-15T05:24:34;147.03;;;52.77;;
7495;SDS011;3789;47.064;15.482;2022-11-15T05:27:01;140.70;;;50.03;;
7495;SDS011;3789;47.064;15.482;2022-11-15T05:29:30;146.90;;;51.13;;
7495;SDS011;3789;47.064;15.482;2022-11-15T05:31:57;133.83;;;49.27;;
7495;SDS011;3789;47.064;15.482;2022-11-15T05:34:24;131.83;;;49.90;;
7495;SDS011;3789;47.064;15.482;2022-11-15T05:36:53;144.57;;;50.40;;
7495;SDS011;3789;47.064;15.482;2022-11-15T05:39:20;125.83;;;48.30;;
7495;SDS011;3789;47.064;15.482;2022-11-15T05:41:48;116.70;;;45.60;;
7495;SDS011;3789;47.064;15.482;2022-11-15T05:44:30;127.70;;;47.70;;
7495;SDS011;3789;47.064;15.482;2022-11-15T05:47:12;128.70;;;47.60;;
7495;SDS011;3789;47.064;15.482;2022-11-15T05:49:45;119.60;;;43.93;;
7495;SDS011;3789;47.064;15.482;2022-11-15T05:52:16;114.07;;;45.33;;
7495;SDS011;3789;47.064;15.482;2022-11-15T05:54:48;123.33;;;47.30;;
7495;SDS011;3789;47.064;15.482;2022-11-15T05:57:20;132.57;;;46.97;;
7495;SDS011;3789;47.064;15.482;2022-11-15T05:59:47;115.43;;;47.07;;
7495;SDS011;3789;47.064;15.482;2022-11-15T06:02:15;106.83;;;44.47;;
7495;SDS011;3789;47.064;15.482;2022-11-15T06:04:44;111.67;;;43.23;;
7495;SDS011;3789;47.064;15.482;2022-11-15T06:07:16;102.33;;;42.13;;
7495;SDS011;3789;47.064;15.482;2022-11-15T06:09:44;109.97;;;42.30;;
7495;SDS011;3789;47.064;15.482;2022-11-15T06:12:12;92.83;;;40.70;;
7495;SDS011;3789;47.064;15.482;2022-11-15T06:14:42;100.67;;;42.53;;
7495;SDS011;3789;47.064;15.482;2022-11-15T06:17:12;96.53;;;40.73;;
7495;SDS011;3789;47.064;15.482;2022-11-15T06:19:39;85.50;;;40.27;;
7495;SDS011;3789;47.064;15.482;2022-11-15T06:22:09;83.97;;;36.90;;
7495;SDS011;3789;47.064;15.482;2022-11-15T06:24:38;80.77;;;38.17;;
7495;SDS011;3789;47.064;15.482;2022-11-15T06:27:10;82.47;;;39.90;;
7495;SDS011;3789;47.064;15.482;2022-11-15T06:29:40;83.90;;;35.40;;
7495;SDS011;3789;47.064;15.482;2022-11-15T06:32:07;83.57;;;37.33;;
7495;SDS011;3789;47.064;15.482;2022-11-15T06:34:38;76.07;;;34.00;;
7495;SDS011;3789;47.064;15.482;2022-11-15T06:37:05;73.07;;;35.70;;
7495;SDS011;3789;47.064;15.482;2022-11-15T06:39:36;75.23;;;35.40;;
7495;SDS011;3789;47.064;15.482;2022-11-15T06:42:08;75.43;;;34.40;;
7495;SDS011;3789;47.064;15.482;2022-11-15T06:44:37;66.50;;;32.90;;
7495;SDS011;3789;47.064;15.482;2022-11-15T06:47:06;67.43;;;31.70;;
7495;SDS011;3789;47.064;15.482;2022-11-15T06:49:33;66.13;;;31.93;;
7495;SDS011;3789;47.064;15.482;2022-11-15T06:52:01;63.20;;;32.10;;
7495;SDS011;3789;47.064;15.482;2022-11-15T06:54:29;70.47;;;32.13;;
7495;SDS011;3789;47.064;15.482;2022-11-15T06:56:56;65.67;;;31.53;;
7495;SDS011;3789;47.064;15.482;2022-11-15T06:59:24;57.67;;;30.17;;
7495;SDS011;3789;47.064;15.482;2022-11-15T07:01:51;72.00;;;29.90;;
7495;SDS011;3789;47.064;15.482;2022-11-15T07:04:20;97.93;;;32.30;;
7495;SDS011;3789;47.064;15.482;2022-11-15T07:06:47;65.33;;;25.00;;
7495;SDS011;3789;47.064;15.482;2022-11-15T07:09:14;68.73;;;32.47;;
7495;SDS011;3789;47.064;15.482;2022-11-15T07:11:47;67.97;;;26.90;;
7495;SDS011;3789;47.064;15.482;2022-11-15T07:14:14;94.63;;;32.27;;
7495;SDS011;3789;47.064;15.482;2022-11-15T07:16:41;78.27;;;29.67;;
7495;SDS011;3789;47.064;15.482;2022-11-15T07:19:11;97.73;;;33.23;;
7495;SDS011;3789;47.064;15.482;2022-11-15T07:21:39;95.53;;;31.70;;
7495;SDS011;3789;47.064;15.482;2022-11-15T07:24:07;87.87;;;31.10;;
7495;SDS011;3789;47.064;15.482;2022-11-15T07:26:34;111.07;;;40.50;;
7495;SDS011;3789;47.064;15.482;2022-11-15T07:29:02;80.20;;;34.93;;
7495;SDS011;3789;47.064;15.482;2022-11-15T07:31:32;96.43;;;39.03;;
7495;SDS011;3789;47.064;15.482;2022-11-15T07:33:59;117.13;;;39.73;;
7495;SDS011;3789;47.064;15.482;2022-11-15T07:36:27;119.00;;;37.43;;
7495;SDS011;3789;47.064;15.482;2022-11-15T07:38:54;94.30;;;40.13;;
7495;SDS011;3789;47.064;15.482;2022-11-15T07:41:22;92.63;;;39.43;;
7495;SDS011;3789;47.064;15.482;2022-11-15T07:43:51;110.40;;;42.40;;
7495;SDS011;3789;47.064;15.482;2022-11-15T07:46:20;78.20;;;32.43;;
7495;SDS011;3789;47.064;15.482;2022-11-15T07:48:51;100.47;;;40.47;;
7495;SDS011;3789;47.064;15.482;2022-11-15T07:51:19;119.77;;;43.17;;
7495;SDS011;3789;47.064;15.482;2022-11-15T07:53:47;142.73;;;43.07;;
7495;SDS011;3789;47.064;15.482;2022-11-15T07:56:15;119.37;;;45.03;;
7495;SDS011;3789;47.064;15.482;2022-11-15T07:58:46;104.53;;;40.53;;
7495;SDS011;3789;47.064;15.482;2022-11-15T08:01:14;149.30;;;44.10;;
7495;SDS011;3789;47.064;15.482;2022-11-15T08:03:43;125.23;;;40.37;;
7495;SDS011;3789;47.064;15.482;2022-11-15T08:06:11;119.20;;;40.30;;
7495;SDS011;3789;47.064;15.482;2022-11-15T08:08:41;104.57;;;41.47;;
7495;SDS011;3789;47.064;15.482;2022-11-15T08:11:09;104.60;;;43.97;;
7495;SDS011;3789;47.064;15.482;2022-11-15T08:13:38;112.17;;;44.47;;
7495;SDS011;3789;47.064;15.482;2022-11-15T08:16:07;109.40;;;42.33;;
7495;SDS011;3789;47.064;15.482;2022-11-15T08:18:50;95.13;;;41.27;;
7495;SDS011;3789;47.064;15.482;2022-11-15T08:21:21;98.90;;;43.23;;
7495;SDS011;3789;47.064;15.482;2022-11-15T08:24:02;88.27;;;39.80;;
7495;SDS011;3789;47.064;15.482;2022-11-15T08:26:38;86.80;;;37.23;;
7495;SDS011;3789;47.064;15.482;2022-11-15T08:29:08;87.27;;;38.73;;
7495;SDS011;3789;47.064;15.482;2022-11-15T08:31:40;80.40;;;35.53;;
7495;SDS011;3789;47.064;15.482;2022-11-15T08:34:09;87.90;;;38.13;;
7495;SDS011;3789;47.064;15.482;2022-11-15T08:36:37;78.50;;;38.00;;
7495;SDS011;3789;47.064;15.482;2022-11-15T08:39:12;79.03;;;37.63;;
7495;SDS011;3789;47.064;15.482;2022-11-15T08:41:42;65.60;;;32.73;;
7495;SDS011;3789;47.064;15.482;2022-11-15T08:44:12;79.80;;;36.47;;
7495;SDS011;3789;47.064;15.482;2022-11-15T08:46:40;84.97;;;37.30;;
7495;SDS011;3789;47.064;15.482;2022-11-15T08:49:09;84.90;;;38.50;;
7495;SDS011;3789;47.064;15.482;2022-11-15T08:51:37;82.63;;;37.83;;
7495;SDS011;3789;47.064;15.482;2022-11-15T08:54:17;80.47;;;37.50;;
7495;SDS011;3789;47.064;15.482;2022-11-15T08:56:45;80.80;;;39.30;;
7495;SDS011;3789;47.064;15.482;2022-11-15T08:59:14;88.87;;;39.37;;
7495;SDS011;3789;47.064;15.482;2022-11-15T09:01:43;90.33;;;41.50;;
7495;SDS011;3789;47.064;15.482;2022-11-15T09:04:12;91.93;;;39.37;;
7495;SDS011;3789;47.064;15.482;2022-11-15T09:06:42;81.27;;;40.93;;
7495;SDS011;3789;47.064;15.482;2022-11-15T09:09:13;83.73;;;38.00;;
7495;SDS011;3789;47.064;15.482;2022-11-15T09:11:43;81.93;;;38.90;;
7495;SDS011;3789;47.064;15.482;2022-11-15T09:14:14;86.75;;;43.40;;
7495;SDS011;3789;47.064;15.482;2022-11-15T09:16:43;72.60;;;37.47;;
7495;SDS011;3789;47.064;15.482;2022-11-15T09:19:14;79.77;;;38.83;;
7495;SDS011;3789;47.064;15.482;2022-11-15T09:21:47;78.60;;;38.10;;
7495;SDS011;3789;47.064;15.482;2022-11-15T09:24:17;76.87;;;36.30;;
7495;SDS011;3789;47.064;15.482;2022-11-15T09:26:49;84.37;;;38.33;;
7495;SDS011;3789;47.064;15.482;2022-11-15T09:29:18;83.83;;;37.33;;
7495;SDS011;3789;47.064;15.482;2022-11-15T09:31:46;89.80;;;41.03;;
7495;SDS011;3789;47.064;15.482;2022-11-15T09:34:15;86.13;;;37.47;;
7495;SDS011;3789;47.064;15.482;2022-11-15T09:36:51;77.17;;;37.83;;
7495;SDS011;3789;47.064;15.482;2022-11-15T09:39:31;85.47;;;39.37;;
7495;SDS011;3789;47.064;15.482;2022-11-15T09:45:28;74.40;;;36.80;;
7495;SDS011;3789;47.064;15.482;2022-11-15T09:49:07;76.00;;;35.77;;
7495;SDS011;3789;47.064;15.482;2022-11-15T09:51:36;77.17;;;36.90;;
7495;SDS011;3789;47.064;15.482;2022-11-15T09:54:34;72.70;;;36.70;;
7495;SDS011;3789;47.064;15.482;2022-11-15T10:00:30;70.03;;;35.30;;
7495;SDS011;3789;47.064;15.482;2022-11-15T10:03:36;79.00;;;42.20;;
7495;SDS011;3789;47.064;15.482;2022-11-15T10:06:09;72.03;;;38.23;;
7495;SDS011;3789;47.064;15.482;2022-11-15T10:11:50;68.27;;;34.00;;
7495;SDS011;3789;47.064;15.482;2022-11-15T10:14:26;66.40;;;33.30;;
7495;SDS011;3789;47.064;15.482;2022-11-15T10:23:01;64.70;;;33.40;;
7495;SDS011;3789;47.064;15.482;2022-11-15T10:25:35;58.33;;;31.43;;
7495;SDS011;3789;47.064;15.482;2022-11-15T10:31:10;66.57;;;33.50;;
7495;SDS011;3789;47.064;15.482;2022-11-15T10:37:01;64.17;;;32.90;;
7495;SDS011;3789;47.064;15.482;2022-11-15T10:39:39;63.23;;;33.37;;
7495;SDS011;3789;47.064;15.482;2022-11-15T10:42:43;61.03;;;34.30;;
7495;SDS011;3789;47.064;15.482;2022-11-15T10:45:08;61.10;;;32.17;;
7495;SDS011;3789;47.064;15.482;2022-11-15T10:50:46;52.40;;;28.43;;
7495;SDS011;3789;47.064;15.482;2022-11-15T10:53:20;50.60;;;28.13;;
7495;SDS011;3789;47.064;15.482;2022-11-15T10:55:55;47.50;;;27.57;;
7495;SDS011;3789;47.064;15.482;2022-11-15T10:58:38;48.23;;;28.13;;
7495;SDS011;3789;47.064;15.482;2022-11-15T11:01:13;43.67;;;25.50;;
7495;SDS011;3789;47.064;15.482;2022-11-15T11:04:08;48.63;;;28.73;;
7495;SDS011;3789;47.064;15.482;2022-11-15T11:06:59;50.50;;;29.77;;
7495;SDS011;3789;47.064;15.482;2022-11-15T11:09:38;53.33;;;27.87;;
7495;SDS011;3789;47.064;15.482;2022-11-15T11:12:11;50.97;;;28.67;;
7495;SDS011;3789;47.064;15.482;2022-11-15T11:14:39;47.83;;;27.67;;
7495;SDS011;3789;47.064;15.482;2022-11-15T11:26:15;42.13;;;25.87;;
7495;SDS011;3789;47.064;15.482;2022-11-15T11:35:19;43.50;;;26.20;;
7495;SDS011;3789;47.064;15.482;2022-11-15T11:47:09;45.77;;;24.43;;
7495;SDS011;3789;47.064;15.482;2022-11-15T11:50:25;41.90;;;26.50;;
7495;SDS011;3789;47.064;15.482;2022-11-15T11:53:05;40.17;;;24.80;;
7495;SDS011;3789;47.064;15.482;2022-11-15T11:55:52;43.70;;;24.40;;
7495;SDS011;3789;47.064;15.482;2022-11-15T11:58:38;46.80;;;26.77;;
7495;SDS011;3789;47.064;15.482;2022-11-15T12:01:26;42.93;;;26.17;;
7495;SDS011;3789;47.064;15.482;2022-11-15T12:10:25;37.57;;;23.17;;
7495;SDS011;3789;47.064;15.482;2022-11-15T12:13:10;36.53;;;22.47;;
7495;SDS011;3789;47.064;15.482;2022-11-15T12:15:49;37.33;;;22.83;;
7495;SDS011;3789;47.064;15.482;2022-11-15T12:18:47;38.13;;;23.90;;
7495;SDS011;3789;47.064;15.482;2022-11-15T12:21:24;37.67;;;24.03;;
7495;SDS011;3789;47.064;15.482;2022-11-15T12:24:05;35.17;;;22.47;;
7495;SDS011;3789;47.064;15.482;2022-11-15T12:27:12;36.30;;;23.00;;
7495;SDS011;3789;47.064;15.482;2022-11-15T12:30:13;36.47;;;23.93;;
7495;SDS011;3789;47.064;15.482;2022-11-15T12:32:54;37.00;;;22.37;;
7495;SDS011;3789;47.064;15.482;2022-11-15T12:35:38;35.13;;;22.20;;
7495;SDS011;3789;47.064;15.482;2022-11-15T12:38:11;34.63;;;21.40;;
7495;SDS011;3789;47.064;15.482;2022-11-15T12:41:13;38.83;;;22.00;;
7495;SDS011;3789;47.064;15.482;2022-11-15T12:43:48;37.43;;;23.30;;
7495;SDS011;3789;47.064;15.482;2022-11-15T12:46:22;35.63;;;23.57;;
7495;SDS011;3789;47.064;15.482;2022-11-15T12:52:04;36.50;;;22.73;;
7495;SDS011;3789;47.064;15.482;2022-11-15T12:57:29;36.33;;;22.40;;
7495;SDS011;3789;47.064;15.482;2022-11-15T13:03:17;33.53;;;22.43;;
7495;SDS011;3789;47.064;15.482;2022-11-15T13:05:53;38.60;;;24.33;;
7495;SDS011;3789;47.064;15.482;2022-11-15T13:08:41;38.77;;;22.63;;
7495;SDS011;3789;47.064;15.482;2022-11-15T13:17:28;32.73;;;20.73;;
7495;SDS011;3789;47.064;15.482;2022-11-15T13:22:48;30.53;;;20.13;;
7495;SDS011;3789;47.064;15.482;2022-11-15T13:28:47;29.03;;;19.97;;
7495;SDS011;3789;47.064;15.482;2022-11-15T13:31:28;29.57;;;20.67;;
7495;SDS011;3789;47.064;15.482;2022-11-15T13:40:21;28.13;;;19.13;;
7495;SDS011;3789;47.064;15.482;2022-11-15T13:43:17;27.20;;;19.60;;
7495;SDS011;3789;47.064;15.482;2022-11-15T13:46:21;27.93;;;19.57;;
7495;SDS011;3789;47.064;15.482;2022-11-15T13:49:00;24.17;;;18.47;;
7495;SDS011;3789;47.064;15.482;2022-11-15T13:51:52;26.27;;;18.90;;
7495;SDS011;3789;47.064;15.482;2022-11-15T13:57:15;27.70;;;19.30;;
7495;SDS011;3789;47.064;15.482;2022-11-15T14:00:03;28.90;;;19.37;;
7495;SDS011;3789;47.064;15.482;2022-11-15T14:02:54;25.07;;;18.63;;
7495;SDS011;3789;47.064;15.482;2022-11-15T14:05:32;25.23;;;18.00;;
7495;SDS011;3789;47.064;15.482;2022-11-15T14:08:04;27.43;;;18.73;;
7495;SDS011;3789;47.064;15.482;2022-11-15T14:10:43;26.10;;;18.57;;
7495;SDS011;3789;47.064;15.482;2022-11-15T14:13:31;27.20;;;17.87;;
7495;SDS011;3789;47.064;15.482;2022-11-15T14:16:35;29.50;;;19.07;;
7495;SDS011;3789;47.064;15.482;2022-11-15T14:19:10;27.90;;;18.53;;
7495;SDS011;3789;47.064;15.482;2022-11-15T14:30:40;30.40;;;20.20;;
7495;SDS011;3789;47.064;15.482;2022-11-15T14:36:04;25.93;;;19.50;;
7495;SDS011;3789;47.064;15.482;2022-11-15T14:38:43;28.47;;;20.30;;
7495;SDS011;3789;47.064;15.482;2022-11-15T14:41:18;26.53;;;17.30;;
7495;SDS011;3789;47.064;15.482;2022-11-15T14:59:02;19.17;;;14.47;;
7495;SDS011;3789;47.064;15.482;2022-11-15T15:01:33;19.03;;;15.10;;
7495;SDS011;3789;47.064;15.482;2022-11-15T15:04:03;22.47;;;14.97;;
7495;SDS011;3789;47.064;15.482;2022-11-15T15:06:32;22.53;;;14.67;;
7495;SDS011;3789;47.064;15.482;2022-11-15T15:09:01;22.50;;;15.43;;
7495;SDS011;3789;47.064;15.482;2022-11-15T15:11:30;24.77;;;16.87;;
7495;SDS011;3789;47.064;15.482;2022-11-15T15:14:00;25.17;;;16.40;;
7495;SDS011;3789;47.064;15.482;2022-11-15T15:16:30;16.60;;;11.80;;
7495;SDS011;3789;47.064;15.482;2022-11-15T15:19:00;29.60;;;18.17;;
7495;SDS011;3789;47.064;15.482;2022-11-15T15:21:32;33.23;;;21.03;;
7495;SDS011;3789;47.064;15.482;2022-11-15T15:24:16;28.70;;;18.03;;
7495;SDS011;3789;47.064;15.482;2022-11-15T15:26:45;29.10;;;17.80;;
7495;SDS011;3789;47.064;15.482;2022-11-15T15:29:14;42.90;;;22.90;;
7495;SDS011;3789;47.064;15.482;2022-11-15T15:31:42;39.47;;;22.73;;
7495;SDS011;3789;47.064;15.482;2022-11-15T15:34:11;38.80;;;23.70;;
7495;SDS011;3789;47.064;15.482;2022-11-15T15:36:43;40.10;;;23.80;;
7495;SDS011;3789;47.064;15.482;2022-11-15T15:39:15;39.00;;;23.17;;
7495;SDS011;3789;47.064;15.482;2022-11-15T15:41:43;38.93;;;22.20;;
7495;SDS011;3789;47.064;15.482;2022-11-15T15:44:12;34.33;;;21.30;;
7495;SDS011;3789;47.064;15.482;2022-11-15T15:46:41;32.60;;;20.60;;
7495;SDS011;3789;47.064;15.482;2022-11-15T15:49:18;34.57;;;19.63;;
7495;SDS011;3789;47.064;15.482;2022-11-15T15:51:48;39.03;;;23.40;;
7495;SDS011;3789;47.064;15.482;2022-11-15T15:54:18;36.37;;;22.13;;
7495;SDS011;3789;47.064;15.482;2022-11-15T15:56:49;39.73;;;23.70;;
7495;SDS011;3789;47.064;15.482;2022-11-15T15:59:23;39.57;;;22.77;;
7495;SDS011;3789;47.064;15.482;2022-11-15T16:01:52;40.87;;;23.47;;
7495;SDS011;3789;47.064;15.482;2022-11-15T16:04:20;38.70;;;24.00;;
7495;SDS011;3789;47.064;15.482;2022-11-15T16:06:51;30.10;;;20.23;;
7495;SDS011;3789;47.064;15.482;2022-11-15T16:09:21;30.93;;;19.97;;
7495;SDS011;3789;47.064;15.482;2022-11-15T16:12:10;34.40;;;20.80;;
7495;SDS011;3789;47.064;15.482;2022-11-15T16:14:39;36.40;;;20.93;;
7495;SDS011;3789;47.064;15.482;2022-11-15T16:17:17;29.03;;;18.53;;
7495;SDS011;3789;47.064;15.482;2022-11-15T16:19:48;29.70;;;17.80;;
7495;SDS011;3789;47.064;15.482;2022-11-15T16:22:18;29.17;;;18.67;;
7495;SDS011;3789;47.064;15.482;2022-11-15T16:24:55;33.63;;;19.67;;
7495;SDS011;3789;47.064;15.482;2022-11-15T16:27:31;32.93;;;20.50;;
7495;SDS011;3789;47.064;15.482;2022-11-15T16:30:00;26.83;;;16.83;;
7495;SDS011;3789;47.064;15.482;2022-11-15T16:32:31;34.73;;;21.10;;
7495;SDS011;3789;47.064;15.482;2022-11-15T16:35:14;30.73;;;19.97;;
7495;SDS011;3789;47.064;15.482;2022-11-15T16:37:44;27.37;;;18.70;;
7495;SDS011;3789;47.064;15.482;2022-11-15T16:40:29;24.10;;;16.50;;
7495;SDS011;3789;47.064;15.482;2022-11-15T16:42:59;29.33;;;17.77;;
7495;SDS011;3789;47.064;15.482;2022-11-15T16:45:31;30.63;;;20.10;;
7495;SDS011;3789;47.064;15.482;2022-11-15T16:48:04;29.40;;;18.70;;
7495;SDS011;3789;47.064;15.482;2022-11-15T16:50:48;24.67;;;16.13;;
7495;SDS011;3789;47.064;15.482;2022-11-15T16:53:16;25.00;;;16.47;;
7495;SDS011;3789;47.064;15.482;2022-11-15T16:55:44;29.80;;;18.37;;
7495;SDS011;3789;47.064;15.482;2022-11-15T16:58:12;29.60;;;17.53;;
7495;SDS011;3789;47.064;15.482;2022-11-15T17:00:40;35.20;;;22.73;;
7495;SDS011;3789;47.064;15.482;2022-11-15T17:03:11;32.73;;;21.60;;
7495;SDS011;3789;47.064;15.482;2022-11-15T17:05:41;34.43;;;21.70;;
7495;SDS011;3789;47.064;15.482;2022-11-15T17:08:10;32.83;;;18.70;;
7495;SDS011;3789;47.064;15.482;2022-11-15T17:10:41;38.97;;;22.70;;
7495;SDS011;3789;47.064;15.482;2022-11-15T17:13:14;35.73;;;21.17;;
7495;SDS011;3789;47.064;15.482;2022-11-15T17:15:57;26.50;;;16.90;;
7495;SDS011;3789;47.064;15.482;2022-11-15T17:18:31;27.03;;;17.00;;
7495;SDS011;3789;47.064;15.482;2022-11-15T17:21:23;33.20;;;19.00;;
7495;SDS011;3789;47.064;15.482;2022-11-15T17:24:00;36.50;;;20.70;;
7495;SDS011;3789;47.064;15.482;2022-11-15T17:26:31;38.23;;;21.70;;
7495;SDS011;3789;47.064;15.482;2022-11-15T17:29:08;35.70;;;21.33;;
7495;SDS011;3789;47.064;15.482;2022-11-15T17:31:36;33.47;;;20.03;;
7495;SDS011;3789;47.064;15.482;2022-11-15T17:34:05;34.33;;;21.87;;
7495;SDS011;3789;47.064;15.482;2022-11-15T17:36:44;29.67;;;19.80;;
7495;SDS011;3789;47.064;15.482;2022-11-15T17:39:14;32.97;;;20.37;;
7495;SDS011;3789;47.064;15.482;2022-11-15T17:41:42;28.37;;;18.50;;
7495;SDS011;3789;47.064;15.482;2022-11-15T17:44:11;30.30;;;20.03;;
7495;SDS011;3789;47.064;15.482;2022-11-15T17:46:40;31.57;;;20.23;;